createdAt,value
2019-04-07T00:01:25.550Z,48.50
2019-04-07T00:03:29.474Z,51.65
2019-04-07T00:05:39.028Z,44.18
2019-04-07T00:07:43.462Z,43.25
2019-04-07T00:09:47.575Z,46.77
2019-04-07T00:11:51.963Z,46.63
2019-04-07T00:13:55.931Z,40.83
2019-04-07T00:16:00.308Z,38.73
2019-04-07T00:18:05.021Z,38.60
2019-04-07T00:20:09.095Z,45.88
2019-04-07T00:22:13.409Z,41.90
2019-04-07T00:24:17.904Z,41.68
2019-04-07T00:26:22.565Z,40.25
2019-04-07T00:28:26.651Z,45.43
2019-04-07T00:30:33.295Z,41.83
2019-04-07T00:32:37.176Z,38.35
2019-04-07T00:34:41.492Z,41.42
2019-04-07T00:36:45.903Z,35.30
2019-04-07T00:38:50.364Z,35.70
2019-04-07T00:40:54.251Z,34.53
2019-04-07T00:42:58.309Z,35.17
2019-04-07T00:45:02.894Z,33.55
2019-04-07T00:47:07.987Z,33.63
2019-04-07T00:49:11.943Z,34.80
2019-04-07T00:51:16.752Z,33.00
2019-04-07T00:53:21.086Z,35.48
2019-04-07T00:55:25.442Z,32.70
2019-04-07T00:57:29.627Z,35.00
2019-04-07T00:59:34.097Z,35.83
2019-04-07T01:01:38.299Z,37.88
2019-04-07T01:03:42.986Z,34.23
2019-04-07T01:05:47.034Z,35.43
2019-04-07T01:07:50.994Z,33.98
2019-04-07T01:09:55.285Z,38.30
2019-04-07T01:11:59.555Z,34.58
2019-04-07T01:14:03.466Z,35.03
2019-04-07T01:16:07.325Z,37.83
2019-04-07T01:18:11.294Z,38.70
2019-04-07T01:20:15.385Z,36.38
2019-04-07T01:22:19.296Z,38.85
2019-04-07T01:24:23.303Z,44.48
2019-04-07T01:26:27.119Z,45.05
2019-04-07T01:28:31.649Z,41.92
2019-04-07T01:30:35.611Z,41.40
2019-04-07T01:32:39.574Z,43.80
2019-04-07T01:34:43.578Z,46.25
2019-04-07T01:36:48.104Z,42.38
2019-04-07T01:38:52.123Z,46.73
2019-04-07T01:40:57.623Z,44.30
2019-04-07T01:43:03.068Z,49.65
2019-04-07T01:45:12.669Z,45.80
2019-04-07T01:47:24.309Z,45.28
2019-04-07T01:49:33.817Z,45.43
2019-04-07T01:51:39.950Z,48.52
2019-04-07T01:53:45.643Z,46.98
2019-04-07T01:56:07.647Z,50.40
2019-04-07T01:58:25.266Z,41.40
2019-04-07T02:00:33.799Z,45.12
2019-04-07T02:02:40.067Z,45.12
2019-04-07T02:04:45.519Z,47.03
2019-04-07T02:07:08.162Z,47.95
2019-04-07T02:09:22.579Z,44.93
2019-04-07T02:11:37.583Z,48.65
2019-04-07T02:13:59.431Z,45.35
2019-04-07T02:16:21.414Z,46.13
2019-04-07T02:18:26.817Z,47.62
2019-04-07T02:20:47.578Z,44.58
2019-04-07T02:23:05.386Z,46.92
2019-04-07T02:25:11.813Z,48.65
2019-04-07T02:27:20.859Z,48.98
2019-04-07T02:29:27.036Z,49.88
2019-04-07T02:31:38.932Z,47.55
2019-04-07T02:33:44.402Z,54.50
2019-04-07T02:36:14.546Z,49.67
2019-04-07T02:38:17.838Z,46.18
2019-04-07T02:40:26.726Z,52.58
2019-04-07T02:42:39.456Z,51.25
2019-04-07T02:44:54.430Z,51.00
2019-04-07T02:47:06.486Z,49.70
2019-04-07T02:49:21.129Z,54.85
2019-04-07T02:51:26.652Z,51.75
2019-04-07T02:53:39.088Z,52.55
2019-04-07T02:55:45.214Z,62.60
2019-04-07T02:57:59.629Z,64.87
2019-04-07T03:00:09.752Z,59.20
2019-04-07T03:02:27.107Z,56.45
2019-04-07T03:04:45.879Z,60.63
2019-04-07T03:07:10.063Z,57.43
2019-04-07T03:09:34.780Z,62.23
2019-04-07T03:11:46.572Z,60.65
2019-04-07T03:13:52.366Z,59.18
2019-04-07T03:15:57.919Z,59.90
2019-04-07T03:18:03.415Z,61.08
2019-04-07T03:20:15.361Z,65.75
2019-04-07T03:22:20.909Z,61.10
2019-04-07T03:24:26.646Z,63.90
2019-04-07T03:26:35.160Z,65.37
2019-04-07T03:28:57.991Z,63.33
2019-04-07T03:31:13.384Z,66.90
2019-04-07T03:33:22.735Z,61.80
2019-04-07T03:35:37.703Z,62.50
2019-04-07T03:37:55.124Z,62.27
2019-04-07T03:40:04.650Z,60.23
2019-04-07T03:42:13.180Z,64.65
2019-04-07T03:44:18.661Z,64.70
2019-04-07T03:46:27.018Z,64.20
2019-04-07T03:48:41.671Z,66.70
2019-04-07T03:50:47.258Z,66.75
2019-04-07T03:52:56.483Z,90.67
2019-04-07T03:55:08.677Z,73.07
2019-04-07T03:57:14.986Z,72.55
2019-04-07T03:59:29.774Z,72.75
2019-04-07T04:01:52.148Z,75.45
2019-04-07T04:03:59.187Z,71.37
2019-04-07T04:06:19.447Z,77.40
2019-04-07T04:08:24.892Z,75.72
2019-04-07T04:10:36.621Z,79.10
2019-04-07T04:12:45.627Z,75.15
2019-04-07T04:14:54.726Z,72.05
2019-04-07T04:16:58.804Z,74.82
2019-04-07T04:19:02.733Z,77.55
2019-04-07T04:21:07.016Z,78.97
2019-04-07T04:23:11.627Z,75.92
2019-04-07T04:25:17.172Z,80.50
2019-04-07T04:27:21.579Z,74.10
2019-04-07T04:29:26.478Z,72.67
2019-04-07T04:31:30.495Z,71.33
2019-04-07T04:33:34.831Z,70.55
2019-04-07T04:35:38.889Z,67.58
2019-04-07T04:37:49.640Z,71.75
2019-04-07T04:39:48.420Z,68.65
2019-04-07T04:41:52.293Z,73.65
2019-04-07T04:43:56.606Z,71.82
2019-04-07T04:46:01.328Z,77.10
2019-04-07T04:48:05.357Z,69.90
2019-04-07T04:50:10.943Z,66.85
2019-04-07T04:52:15.609Z,69.58
2019-04-07T04:54:19.671Z,69.47
2019-04-07T04:56:24.279Z,70.92
2019-04-07T04:58:28.944Z,69.27
2019-04-07T05:00:32.955Z,73.28
2019-04-07T05:02:36.848Z,70.67
2019-04-07T05:04:40.769Z,71.87
2019-04-07T05:06:44.635Z,74.90
2019-04-07T05:08:48.644Z,72.22
2019-04-07T05:10:53.259Z,66.25
2019-04-07T05:12:57.279Z,67.80
2019-04-07T05:15:01.728Z,68.83
2019-04-07T05:17:06.291Z,71.87
2019-04-07T05:19:10.985Z,73.07
2019-04-07T05:21:15.107Z,70.70
2019-04-07T05:23:19.629Z,73.85
2019-04-07T05:25:26.299Z,76.53
2019-04-07T05:27:30.313Z,69.20
2019-04-07T05:29:34.227Z,75.37
2019-04-07T05:31:38.701Z,71.28
2019-04-07T05:33:43.276Z,75.05
2019-04-07T05:35:49.545Z,74.20
2019-04-07T05:38:02.764Z,75.30
2019-04-07T05:40:02.725Z,78.67
2019-04-07T05:42:08.040Z,75.12
2019-04-07T05:44:12.345Z,75.60
2019-04-07T05:46:16.252Z,73.15
2019-04-07T05:48:21.626Z,80.85
2019-04-07T05:50:27.412Z,73.62
2019-04-07T05:52:35.371Z,76.25
2019-04-07T05:54:37.728Z,77.90
2019-04-07T05:56:41.872Z,70.42
2019-04-07T05:58:46.245Z,69.95
2019-04-07T06:00:50.287Z,75.62
2019-04-07T06:02:54.346Z,75.87
2019-04-07T06:04:59.353Z,67.47
2019-04-07T06:07:08.045Z,71.50
2019-04-07T06:09:12.255Z,69.17
2019-04-07T06:11:16.957Z,74.42
2019-04-07T06:13:20.824Z,74.37
2019-04-07T06:15:24.846Z,76.80
2019-04-07T06:17:28.735Z,67.37
2019-04-07T06:19:32.609Z,68.37
2019-04-07T06:21:36.623Z,66.45
2019-04-07T06:23:40.790Z,70.52
2019-04-07T06:25:45.090Z,64.37
2019-04-07T06:27:50.163Z,64.58
2019-04-07T06:29:57.204Z,61.15
2019-04-07T06:32:02.429Z,61.23
2019-04-07T06:34:08.688Z,61.55
2019-04-07T06:36:11.509Z,60.52
2019-04-07T06:38:15.592Z,59.55
2019-04-07T06:40:20.665Z,56.77
2019-04-07T06:42:25.031Z,57.30
2019-04-07T06:44:29.051Z,58.02
2019-04-07T06:46:34.534Z,53.23
2019-04-07T06:48:40.617Z,55.05
2019-04-07T06:51:01.912Z,55.45
2019-04-07T06:53:16.341Z,54.08
2019-04-07T06:55:26.458Z,55.63
2019-04-07T06:57:36.084Z,56.33
2019-04-07T06:59:57.736Z,55.65
2019-04-07T07:02:13.191Z,54.83
2019-04-07T07:04:34.001Z,57.23
2019-04-07T07:06:57.955Z,54.20
2019-04-07T07:09:09.131Z,55.43
2019-04-07T07:11:28.069Z,57.78
2019-04-07T07:15:37.404Z,57.58
2019-04-07T07:17:50.811Z,56.25
2019-04-07T07:19:57.381Z,58.58
2019-04-07T07:22:20.305Z,59.55
2019-04-07T07:24:25.711Z,60.95
2019-04-07T07:26:32.994Z,56.92
2019-04-07T07:28:35.925Z,63.48
2019-04-07T07:30:40.577Z,62.65
2019-04-07T07:32:48.534Z,61.65
2019-04-07T07:34:52.789Z,60.55
2019-04-07T07:36:58.078Z,58.15
2019-04-07T07:39:07.245Z,59.08
2019-04-07T07:41:08.829Z,62.17
2019-04-07T07:43:13.214Z,59.50
2019-04-07T07:45:17.488Z,57.40
2019-04-07T07:47:22.588Z,61.42
2019-04-07T07:49:30.699Z,58.42
2019-04-07T07:51:39.538Z,60.78
2019-04-07T07:53:43.730Z,65.30
2019-04-07T07:55:47.745Z,62.15
2019-04-07T07:57:56.836Z,65.42
2019-04-07T07:59:57.379Z,62.55
2019-04-07T08:02:04.295Z,66.37
2019-04-07T08:04:08.689Z,59.60
2019-04-07T08:06:12.624Z,60.12
2019-04-07T08:08:16.501Z,61.50
2019-04-07T08:10:23.246Z,63.30
2019-04-07T08:12:27.162Z,62.50
2019-04-07T08:14:31.538Z,58.55
2019-04-07T08:16:35.698Z,56.50
2019-04-07T08:18:43.550Z,59.25
2019-04-07T08:20:45.992Z,59.88
2019-04-07T08:22:50.421Z,57.13
2019-04-07T08:24:54.589Z,54.60
2019-04-07T08:26:59.349Z,56.05
2019-04-07T08:29:06.737Z,55.05
2019-04-07T08:31:10.045Z,54.65
2019-04-07T08:33:14.679Z,55.58
2019-04-07T08:35:22.137Z,53.70
2019-04-07T08:37:26.265Z,57.25
2019-04-07T08:39:33.582Z,54.40
2019-04-07T08:41:39.681Z,53.63
2019-04-07T08:43:42.063Z,56.30
2019-04-07T08:45:46.183Z,53.68
2019-04-07T08:47:51.729Z,55.92
2019-04-07T08:49:57.764Z,55.78
2019-04-07T08:52:07.282Z,56.85
2019-04-07T08:54:07.466Z,53.23
2019-04-07T08:56:11.938Z,55.95
2019-04-07T08:58:25.127Z,54.95
2019-04-07T09:00:24.882Z,57.65
2019-04-07T09:02:30.369Z,56.92
2019-04-07T09:04:35.344Z,56.23
2019-04-07T09:06:39.624Z,61.63
2019-04-07T09:08:43.990Z,60.28
2019-04-07T09:10:51.004Z,63.35
2019-04-07T09:12:56.752Z,60.23
2019-04-07T09:15:03.943Z,58.68
2019-04-07T09:17:29.313Z,63.00
2019-04-07T09:19:25.284Z,62.45
2019-04-07T09:21:39.963Z,61.77
2019-04-07T09:23:45.779Z,58.75
2019-04-07T09:26:10.119Z,59.05
2019-04-07T09:28:14.287Z,58.28
2019-04-07T09:30:20.721Z,60.33
2019-04-07T09:32:26.443Z,54.30
2019-04-07T09:34:38.135Z,58.28
2019-04-07T09:36:49.957Z,55.25
2019-04-07T09:39:12.303Z,59.03
2019-04-07T09:41:28.354Z,61.10
2019-04-07T09:43:32.266Z,55.78
2019-04-07T09:45:52.923Z,56.13
2019-04-07T09:48:10.281Z,51.30
2019-04-07T09:50:28.810Z,58.63
2019-04-07T09:52:49.172Z,55.05
2019-04-07T09:55:04.446Z,50.85
2019-04-07T09:57:25.963Z,52.58
2019-04-07T09:59:40.582Z,49.40
2019-04-07T10:01:50.845Z,52.50
2019-04-07T10:04:07.271Z,53.35
2019-04-07T10:06:16.716Z,50.63
2019-04-07T10:08:28.636Z,52.62
2019-04-07T10:10:49.794Z,49.50
2019-04-07T10:13:13.577Z,50.43
2019-04-07T10:15:33.885Z,54.40
2019-04-07T10:17:43.120Z,50.65
2019-04-07T10:19:49.853Z,47.25
2019-04-07T10:21:56.083Z,48.87
2019-04-07T10:24:05.258Z,50.05
2019-04-07T10:26:16.802Z,44.33
2019-04-07T10:28:25.597Z,42.43
2019-04-07T10:30:34.843Z,43.83
2019-04-07T10:32:44.049Z,49.67
2019-04-07T10:34:59.255Z,40.05
2019-04-07T10:37:05.040Z,45.38
2019-04-07T10:39:17.474Z,44.93
2019-04-07T10:41:29.466Z,46.70
2019-04-07T10:43:35.032Z,47.60
2019-04-07T10:45:43.865Z,43.52
2019-04-07T10:48:02.437Z,47.88
2019-04-07T10:50:11.193Z,45.12
2019-04-07T10:52:33.935Z,41.28
2019-04-07T10:54:42.298Z,45.00
2019-04-07T10:56:58.245Z,45.38
2019-04-07T10:59:19.993Z,44.55
2019-04-07T11:01:43.376Z,42.78
2019-04-07T11:03:55.662Z,41.92
2019-04-07T11:06:02.057Z,41.80
2019-04-07T11:08:07.565Z,40.78
2019-04-07T11:10:29.871Z,44.10
2019-04-07T11:12:39.506Z,47.75
2019-04-07T11:14:48.914Z,46.23
2019-04-07T11:17:06.791Z,41.53
2019-04-07T11:19:17.887Z,43.05
2019-04-07T11:21:23.763Z,37.73
2019-04-07T11:23:45.170Z,39.10
2019-04-07T11:26:07.017Z,37.58
2019-04-07T11:28:21.786Z,38.00
2019-04-07T11:30:40.920Z,37.17
2019-04-07T11:32:46.494Z,36.38
2019-04-07T11:34:52.931Z,38.78
2019-04-07T11:37:04.893Z,40.52
2019-04-07T11:39:19.937Z,35.00
2019-04-07T11:41:42.405Z,43.05
2019-04-07T11:44:03.374Z,34.40
2019-04-07T11:46:26.227Z,34.08
2019-04-07T11:48:36.463Z,33.92
2019-04-07T11:50:43.213Z,34.67
2019-04-07T11:53:05.309Z,36.60
2019-04-07T11:55:11.883Z,34.83
2019-04-07T11:57:30.108Z,36.05
2019-04-07T11:59:39.361Z,31.80
2019-04-07T12:02:03.551Z,36.40
2019-04-07T12:04:21.694Z,34.98
2019-04-07T12:06:46.555Z,41.35
2019-04-07T12:08:52.175Z,42.13
2019-04-07T12:11:14.870Z,35.90
2019-04-07T12:15:58.072Z,38.17
2019-04-07T12:18:06.534Z,40.83
2019-04-07T12:20:16.954Z,35.55
2019-04-07T12:22:28.420Z,36.45
2019-04-07T12:24:45.785Z,35.52
2019-04-07T12:27:03.621Z,38.65
2019-04-07T12:29:34.225Z,37.70
2019-04-07T12:31:43.352Z,43.25
2019-04-07T12:34:15.398Z,42.73
2019-04-07T12:38:32.788Z,41.08
2019-04-07T12:40:40.969Z,36.15
2019-04-07T12:42:47.084Z,37.83
2019-04-07T12:44:55.567Z,35.20
2019-04-07T12:47:03.714Z,34.53
2019-04-07T12:49:21.292Z,33.88
2019-04-07T12:51:44.653Z,33.10
2019-04-07T12:56:03.112Z,39.58
2019-04-07T12:58:14.921Z,31.90
2019-04-07T13:00:22.627Z,32.78
2019-04-07T13:02:28.488Z,30.82
2019-04-07T13:04:40.728Z,29.57
2019-04-07T13:06:52.381Z,30.00
2019-04-07T13:09:14.949Z,31.85
2019-04-07T13:11:31.155Z,29.37
2019-04-07T13:13:30.567Z,30.70
2019-04-07T13:15:52.041Z,29.75
2019-04-07T13:18:10.727Z,30.25
2019-04-07T13:20:19.702Z,30.35
2019-04-07T13:22:27.546Z,28.10
2019-04-07T13:24:39.124Z,31.48
2019-04-07T13:26:51.021Z,33.35
2019-04-07T13:29:02.687Z,36.00
2019-04-07T13:31:27.422Z,30.37
2019-04-07T13:33:36.135Z,31.65
2019-04-07T13:35:41.606Z,34.40
2019-04-07T13:37:53.359Z,28.92
2019-04-07T13:39:58.964Z,30.02
2019-04-07T13:42:20.852Z,40.40
2019-04-07T13:44:27.096Z,31.12
2019-04-07T13:46:50.967Z,32.75
2019-04-07T13:49:00.246Z,58.25
2019-04-07T13:51:06.254Z,30.48
2019-04-07T13:53:17.543Z,32.23
2019-04-07T13:55:43.123Z,30.70
2019-04-07T13:57:55.938Z,30.20
2019-04-07T14:00:17.091Z,30.30
2019-04-07T14:02:39.830Z,29.25
2019-04-07T14:04:45.663Z,32.90
2019-04-07T14:06:57.704Z,28.55
2019-04-07T14:09:20.169Z,28.10
2019-04-07T14:11:34.977Z,29.40
2019-04-07T14:13:53.407Z,29.70
2019-04-07T14:16:02.911Z,30.25
2019-04-07T14:18:25.524Z,29.63
2019-04-07T14:20:37.573Z,29.98
2019-04-07T14:22:59.396Z,39.20
2019-04-07T14:25:13.744Z,34.18
2019-04-07T14:27:23.682Z,36.68
2019-04-07T14:29:39.370Z,31.82
2019-04-07T14:31:45.508Z,31.17
2019-04-07T14:34:07.464Z,31.87
2019-04-07T14:36:22.135Z,28.30
2019-04-07T14:38:30.150Z,41.28
2019-04-07T14:40:38.858Z,32.75
2019-04-07T14:42:57.163Z,32.58
2019-04-07T14:45:12.123Z,35.52
2019-04-07T14:47:18.599Z,36.15
2019-04-07T14:49:27.840Z,49.58
2019-04-07T14:51:50.125Z,34.13
2019-04-07T14:54:11.776Z,28.57
2019-04-07T14:56:37.574Z,25.43
2019-04-07T14:58:45.398Z,28.52
2019-04-07T15:00:57.192Z,25.82
2019-04-07T15:03:02.079Z,29.20
2019-04-07T15:05:09.270Z,38.08
2019-04-07T15:07:24.683Z,32.15
2019-04-07T15:09:30.582Z,26.60
2019-04-07T15:11:38.862Z,26.00
2019-04-07T15:13:45.398Z,28.42
2019-04-07T15:15:51.082Z,30.05
2019-04-07T15:17:54.388Z,35.95
2019-04-07T15:19:58.544Z,30.02
2019-04-07T15:22:04.220Z,27.82
2019-04-07T15:24:08.616Z,27.75
2019-04-07T15:26:15.732Z,27.05
2019-04-07T15:28:18.187Z,28.85
2019-04-07T15:30:22.281Z,29.37
2019-04-07T15:32:28.569Z,28.47
2019-04-07T15:34:32.115Z,27.35
2019-04-07T15:36:36.403Z,28.05
2019-04-07T15:38:41.817Z,30.43
2019-04-07T15:40:46.009Z,30.02
2019-04-07T15:42:51.046Z,32.25
2019-04-07T15:44:55.348Z,27.22
2019-04-07T15:46:59.216Z,27.77
2019-04-07T15:49:03.788Z,30.92
2019-04-07T15:51:09.079Z,23.50
2019-04-07T15:53:15.197Z,24.27
2019-04-07T15:55:18.867Z,24.92
2019-04-07T15:57:24.074Z,24.35
2019-04-07T15:59:29.801Z,21.33
2019-04-07T16:01:33.759Z,21.93
2019-04-07T16:03:37.721Z,27.10
2019-04-07T16:05:43.941Z,23.32
2019-04-07T16:07:48.072Z,28.50
2019-04-07T16:09:56.345Z,25.43
2019-04-07T16:11:59.117Z,23.45
2019-04-07T16:14:08.698Z,24.12
2019-04-07T16:16:08.683Z,25.62
2019-04-07T16:18:12.669Z,23.50
2019-04-07T16:20:22.893Z,22.77
2019-04-07T16:22:22.599Z,24.10
2019-04-07T16:24:26.957Z,26.82
2019-04-07T16:26:32.176Z,26.33
2019-04-07T16:28:36.627Z,26.97
2019-04-07T16:30:40.753Z,23.80
2019-04-07T16:32:44.948Z,28.85
2019-04-07T16:34:49.764Z,26.80
2019-04-07T16:36:57.283Z,25.17
2019-04-07T16:39:01.781Z,29.12
2019-04-07T16:41:06.433Z,29.60
2019-04-07T16:43:15.130Z,27.73
2019-04-07T16:45:17.921Z,25.17
2019-04-07T16:47:26.343Z,28.75
2019-04-07T16:49:30.501Z,26.42
2019-04-07T16:51:35.094Z,25.77
2019-04-07T16:53:41.791Z,30.12
2019-04-07T16:55:48.475Z,25.23
2019-04-07T16:57:52.395Z,29.02
2019-04-07T16:59:56.538Z,29.42
2019-04-07T17:02:00.450Z,27.45
2019-04-07T17:04:04.591Z,26.50
2019-04-07T17:06:11.078Z,30.05
2019-04-07T17:08:17.681Z,28.70
2019-04-07T17:10:21.735Z,27.10
2019-04-07T17:12:25.904Z,30.57
2019-04-07T17:14:33.737Z,29.48
2019-04-07T17:16:35.462Z,29.85
2019-04-07T17:18:41.361Z,31.80
2019-04-07T17:20:45.261Z,34.33
2019-04-07T17:22:49.471Z,29.55
2019-04-07T17:24:53.462Z,33.18
2019-04-07T17:26:58.106Z,35.25
2019-04-07T17:29:03.204Z,26.57
2019-04-07T17:31:07.842Z,31.33
2019-04-07T17:33:12.335Z,31.45
2019-04-07T17:35:18.896Z,32.93
2019-04-07T17:37:25.890Z,30.12
2019-04-07T17:39:38.396Z,30.37
2019-04-07T17:41:41.642Z,31.48
2019-04-07T17:43:55.199Z,36.30
2019-04-07T17:46:16.673Z,32.42
2019-04-07T17:48:25.603Z,31.20
2019-04-07T17:50:35.713Z,36.15
2019-04-07T17:52:41.641Z,36.77
2019-04-07T17:55:00.103Z,34.83
2019-04-07T17:57:06.833Z,38.30
2019-04-07T17:59:22.011Z,40.40
2019-04-07T18:01:29.172Z,51.00
2019-04-07T18:03:51.871Z,91.17
2019-04-07T18:06:03.872Z,135.30
2019-04-07T18:08:26.354Z,159.32
2019-04-07T18:10:37.849Z,133.43
2019-04-07T18:12:58.840Z,133.82
2019-04-07T18:15:20.724Z,128.40
2019-04-07T18:17:44.557Z,117.45
2019-04-07T18:19:48.503Z,114.10
2019-04-07T18:22:09.244Z,103.80
2019-04-07T18:24:14.861Z,97.65
2019-04-07T18:26:20.713Z,95.25
2019-04-07T18:28:35.911Z,94.37
2019-04-07T18:30:47.316Z,81.05
2019-04-07T18:32:53.476Z,75.15
2019-04-07T18:35:08.034Z,76.62
2019-04-07T18:37:24.906Z,69.32
2019-04-07T18:39:40.031Z,65.92
2019-04-07T18:42:06.628Z,62.90
2019-04-07T18:44:26.910Z,63.20
2019-04-07T18:46:46.733Z,72.12
2019-04-07T18:48:59.170Z,66.90
2019-04-07T18:51:13.811Z,72.58
2019-04-07T18:53:38.458Z,71.10
2019-04-07T18:55:53.675Z,64.30
2019-04-07T18:57:59.581Z,63.38
2019-04-07T19:00:14.771Z,63.08
2019-04-07T19:02:38.654Z,66.72
2019-04-07T19:04:47.776Z,65.22
2019-04-07T19:07:09.744Z,63.60
2019-04-07T19:09:18.947Z,70.47
2019-04-07T19:11:34.153Z,76.57
2019-04-07T19:14:20.418Z,79.50
2019-04-07T19:18:18.532Z,104.20
2019-04-07T19:20:24.773Z,101.95
2019-04-07T19:22:33.339Z,103.90
2019-04-07T19:24:44.559Z,90.50
2019-04-07T19:26:53.038Z,87.22
2019-04-07T19:29:08.397Z,87.27
2019-04-07T19:31:28.638Z,84.28
2019-04-07T19:33:50.788Z,81.78
2019-04-07T19:35:59.288Z,82.42
2019-04-07T19:38:04.866Z,80.80
2019-04-07T19:40:16.763Z,73.87
2019-04-07T19:42:41.746Z,78.67
2019-04-07T19:44:59.519Z,75.72
2019-04-07T19:47:21.515Z,75.60
2019-04-07T19:49:32.918Z,76.55
2019-04-07T19:51:57.423Z,81.75
2019-04-07T19:54:14.686Z,85.40
2019-04-07T19:56:18.894Z,103.58
2019-04-07T19:58:42.698Z,95.42
2019-04-07T20:00:58.879Z,94.58
2019-04-07T20:03:13.607Z,92.02
2019-04-07T20:05:26.749Z,84.47
2019-04-07T20:07:41.968Z,89.65
2019-04-07T20:09:56.801Z,79.42
2019-04-07T20:12:08.613Z,74.72
2019-04-07T20:14:30.592Z,66.00
2019-04-07T20:16:41.311Z,73.02
2019-04-07T20:19:02.323Z,73.67
2019-04-07T20:21:13.179Z,74.82
2019-04-07T20:23:30.267Z,68.70
2019-04-07T20:25:43.176Z,68.62
2019-04-07T20:27:49.631Z,85.62
2019-04-07T20:30:06.877Z,104.12
2019-04-07T20:32:28.092Z,116.67
2019-04-07T20:34:36.581Z,122.98
2019-04-07T20:36:47.959Z,127.22
2019-04-07T20:38:58.422Z,131.32
2019-04-07T20:41:04.127Z,137.88
2019-04-07T20:43:16.655Z,136.47
2019-04-07T20:45:40.747Z,135.35
2019-04-07T20:47:46.601Z,132.37
2019-04-07T20:50:07.673Z,128.70
2019-04-07T20:52:15.420Z,121.00
2019-04-07T20:54:20.364Z,121.65
2019-04-07T20:56:45.613Z,104.58
2019-04-07T20:58:58.622Z,132.52
2019-04-07T21:01:04.933Z,127.02
2019-04-07T21:03:24.256Z,114.45
2019-04-07T21:05:29.248Z,115.03
2019-04-07T21:07:35.495Z,117.55
2019-04-07T21:09:46.811Z,105.80
2019-04-07T21:11:55.383Z,85.30
2019-04-07T21:14:07.343Z,78.37
2019-04-07T21:16:29.544Z,86.40
2019-04-07T21:18:42.717Z,86.65
2019-04-07T21:20:54.659Z,97.00
2019-04-07T21:23:07.050Z,88.78
2019-04-07T21:25:21.600Z,88.30
2019-04-07T21:27:34.749Z,88.82
2019-04-07T21:29:41.422Z,97.42
2019-04-07T21:31:48.778Z,98.50
2019-04-07T21:34:06.728Z,95.42
2019-04-07T21:36:21.689Z,96.53
2019-04-07T21:38:29.823Z,99.40
2019-04-07T21:40:39.508Z,100.72
2019-04-07T21:43:00.616Z,101.67
2019-04-07T21:45:29.149Z,100.27
2019-04-07T21:47:26.611Z,97.17
2019-04-07T21:49:34.775Z,104.53
2019-04-07T21:51:39.821Z,108.92
2019-04-07T21:53:45.561Z,108.95
2019-04-07T21:56:06.119Z,110.35
2019-04-07T21:58:14.543Z,113.32
2019-04-07T22:00:23.231Z,107.12
2019-04-07T22:02:31.779Z,100.70
2019-04-07T22:04:56.557Z,99.35
2019-04-07T22:07:01.380Z,103.67
2019-04-07T22:09:18.384Z,99.80
2019-04-07T22:11:26.692Z,101.50
2019-04-07T22:13:32.869Z,96.20
2019-04-07T22:15:45.810Z,97.97
2019-04-07T22:17:41.937Z,94.13
2019-04-07T22:19:47.046Z,98.45
2019-04-07T22:21:55.090Z,98.10
2019-04-07T22:23:58.262Z,96.05
2019-04-07T22:26:02.536Z,96.12
2019-04-07T22:28:07.588Z,97.37
2019-04-07T22:30:14.502Z,98.87
2019-04-07T22:32:23.036Z,100.58
2019-04-07T22:34:29.817Z,98.52
2019-04-07T22:36:33.567Z,102.95
2019-04-07T22:38:37.711Z,96.05
2019-04-07T22:40:41.711Z,105.75
2019-04-07T22:42:47.445Z,97.15
2019-04-07T22:44:55.988Z,100.30
2019-04-07T22:47:04.946Z,98.58
2019-04-07T22:49:13.500Z,97.35
2019-04-07T22:51:22.989Z,98.05
2019-04-07T22:53:31.402Z,100.12
2019-04-07T22:55:40.298Z,103.92
2019-04-07T22:57:49.585Z,100.53
2019-04-07T22:59:58.737Z,103.83
2019-04-07T23:02:07.808Z,99.35
2019-04-07T23:04:18.183Z,97.10
2019-04-07T23:06:27.067Z,99.47
2019-04-07T23:08:37.760Z,103.60
2019-04-07T23:10:47.783Z,104.35
2019-04-07T23:12:57.276Z,99.40
2019-04-07T23:15:06.439Z,105.22
2019-04-07T23:17:15.556Z,99.95
2019-04-07T23:19:24.915Z,97.10
2019-04-07T23:21:34.087Z,97.92
2019-04-07T23:23:42.928Z,100.18
2019-04-07T23:25:52.059Z,100.60
2019-04-07T23:28:01.080Z,104.10
2019-04-07T23:30:15.128Z,103.85
2019-04-07T23:32:24.277Z,100.20
2019-04-07T23:34:33.068Z,110.48
2019-04-07T23:36:42.480Z,112.45
2019-04-07T23:38:51.657Z,115.45
2019-04-07T23:41:01.157Z,112.10
2019-04-07T23:43:11.145Z,110.42
2019-04-07T23:45:20.194Z,113.42
2019-04-07T23:47:29.042Z,110.90
2019-04-07T23:49:37.376Z,111.42
2019-04-07T23:51:46.308Z,123.25
2019-04-07T23:54:15.140Z,117.62
2019-04-07T23:56:25.217Z,114.20
2019-04-07T23:58:34.629Z,115.10
